sensor_id;sensor_type;location;lat;lon;timestamp;temperature;humidity
21108;DHT22;10712;52.944;9.098;2023-08-17T00:01:50;17.40;83.80
21108;DHT22;10712;52.944;9.098;2023-08-17T00:04:16;17.40;83.80
21108;DHT22;10712;52.944;9.098;2023-08-17T00:06:42;17.40;83.80
21108;DHT22;10712;52.944;9.098;2023-08-17T00:09:08;17.40;83.90
21108;DHT22;10712;52.944;9.098;2023-08-17T00:11:35;17.30;84.10
21108;DHT22;10712;52.944;9.098;2023-08-17T00:14:02;17.40;84.00
21108;DHT22;10712;52.944;9.098;2023-08-17T00:16:28;17.30;83.90
21108;DHT22;10712;52.944;9.098;2023-08-17T00:18:53;17.30;83.90
21108;DHT22;10712;52.944;9.098;2023-08-17T00:21:19;17.30;84.10
21108;DHT22;10712;52.944;9.098;2023-08-17T00:23:45;17.30;84.10
21108;DHT22;10712;52.944;9.098;2023-08-17T00:26:11;17.30;84.30
21108;DHT22;10712;52.944;9.098;2023-08-17T00:28:37;17.30;84.30
21108;DHT22;10712;52.944;9.098;2023-08-17T00:31:03;17.30;84.40
21108;DHT22;10712;52.944;9.098;2023-08-17T00:33:29;17.30;84.40
21108;DHT22;10712;52.944;9.098;2023-08-17T00:35:55;17.30;84.40
21108;DHT22;10712;52.944;9.098;2023-08-17T00:38:21;17.20;84.40
21108;DHT22;10712;52.944;9.098;2023-08-17T00:40:47;17.20;84.50
21108;DHT22;10712;52.944;9.098;2023-08-17T00:43:13;17.20;84.60
21108;DHT22;10712;52.944;9.098;2023-08-17T00:45:40;17.20;84.70
21108;DHT22;10712;52.944;9.098;2023-08-17T00:48:08;17.20;84.80
21108;DHT22;10712;52.944;9.098;2023-08-17T00:50:35;17.20;84.80
21108;DHT22;10712;52.944;9.098;2023-08-17T00:53:03;17.20;84.90
21108;DHT22;10712;52.944;9.098;2023-08-17T00:55:29;17.20;84.90
21108;DHT22;10712;52.944;9.098;2023-08-17T00:57:56;17.20;85.00
21108;DHT22;10712;52.944;9.098;2023-08-17T01:00:24;17.20;85.10
21108;DHT22;10712;52.944;9.098;2023-08-17T01:02:53;17.20;85.30
21108;DHT22;10712;52.944;9.098;2023-08-17T01:05:19;17.20;85.30
21108;DHT22;10712;52.944;9.098;2023-08-17T01:07:46;17.10;85.40
21108;DHT22;10712;52.944;9.098;2023-08-17T01:10:12;17.20;85.50
21108;DHT22;10712;52.944;9.098;2023-08-17T01:12:46;17.20;85.60
21108;DHT22;10712;52.944;9.098;2023-08-17T01:15:24;17.10;85.60
21108;DHT22;10712;52.944;9.098;2023-08-17T01:20:53;17.10;85.80
21108;DHT22;10712;52.944;9.098;2023-08-17T01:23:20;17.10;86.00
21108;DHT22;10712;52.944;9.098;2023-08-17T01:25:46;17.10;86.00
21108;DHT22;10712;52.944;9.098;2023-08-17T01:28:12;17.10;85.80
21108;DHT22;10712;52.944;9.098;2023-08-17T01:31:27;17.10;85.80
21108;DHT22;10712;52.944;9.098;2023-08-17T01:33:59;17.10;86.00
21108;DHT22;10712;52.944;9.098;2023-08-17T01:36:36;17.10;86.00
21108;DHT22;10712;52.944;9.098;2023-08-17T01:39:07;17.10;86.00
21108;DHT22;10712;52.944;9.098;2023-08-17T01:41:35;17.10;86.20
21108;DHT22;10712;52.944;9.098;2023-08-17T01:44:04;17.10;86.30
21108;DHT22;10712;52.944;9.098;2023-08-17T01:46:32;17.10;86.40
21108;DHT22;10712;52.944;9.098;2023-08-17T01:48:59;17.10;86.40
21108;DHT22;10712;52.944;9.098;2023-08-17T01:51:24;17.10;86.40
21108;DHT22;10712;52.944;9.098;2023-08-17T01:53:51;17.10;86.50
21108;DHT22;10712;52.944;9.098;2023-08-17T01:56:17;17.10;86.50
21108;DHT22;10712;52.944;9.098;2023-08-17T01:58:44;17.10;86.60
21108;DHT22;10712;52.944;9.098;2023-08-17T02:01:10;17.10;86.70
21108;DHT22;10712;52.944;9.098;2023-08-17T02:03:36;17.10;86.70
21108;DHT22;10712;52.944;9.098;2023-08-17T02:06:02;17.10;86.80
21108;DHT22;10712;52.944;9.098;2023-08-17T02:08:28;17.10;86.60
21108;DHT22;10712;52.944;9.098;2023-08-17T02:10:54;17.10;86.60
21108;DHT22;10712;52.944;9.098;2023-08-17T02:13:21;17.10;86.50
21108;DHT22;10712;52.944;9.098;2023-08-17T02:15:47;17.10;86.60
21108;DHT22;10712;52.944;9.098;2023-08-17T02:18:13;17.10;86.50
21108;DHT22;10712;52.944;9.098;2023-08-17T02:20:39;17.10;86.50
21108;DHT22;10712;52.944;9.098;2023-08-17T02:23:05;17.10;86.40
21108;DHT22;10712;52.944;9.098;2023-08-17T02:25:30;17.10;86.40
21108;DHT22;10712;52.944;9.098;2023-08-17T02:28:02;17.10;86.40
21108;DHT22;10712;52.944;9.098;2023-08-17T02:30:29;17.10;86.50
21108;DHT22;10712;52.944;9.098;2023-08-17T02:32:57;17.10;86.50
21108;DHT22;10712;52.944;9.098;2023-08-17T02:35:23;17.10;86.50
21108;DHT22;10712;52.944;9.098;2023-08-17T02:37:49;17.10;86.60
21108;DHT22;10712;52.944;9.098;2023-08-17T02:40:15;17.10;86.80
21108;DHT22;10712;52.944;9.098;2023-08-17T02:42:41;17.10;86.70
21108;DHT22;10712;52.944;9.098;2023-08-17T02:45:07;17.10;86.70
21108;DHT22;10712;52.944;9.098;2023-08-17T02:47:35;17.20;86.50
21108;DHT22;10712;52.944;9.098;2023-08-17T02:50:00;17.20;86.60
21108;DHT22;10712;52.944;9.098;2023-08-17T02:52:26;17.20;86.50
21108;DHT22;10712;52.944;9.098;2023-08-17T02:54:52;17.20;86.70
21108;DHT22;10712;52.944;9.098;2023-08-17T02:57:18;17.20;87.10
21108;DHT22;10712;52.944;9.098;2023-08-17T02:59:45;17.20;87.50
21108;DHT22;10712;52.944;9.098;2023-08-17T03:02:11;17.10;88.00
21108;DHT22;10712;52.944;9.098;2023-08-17T03:04:37;17.10;88.40
21108;DHT22;10712;52.944;9.098;2023-08-17T03:07:03;17.10;88.80
21108;DHT22;10712;52.944;9.098;2023-08-17T03:09:29;17.10;89.30
21108;DHT22;10712;52.944;9.098;2023-08-17T03:11:55;17.00;89.70
21108;DHT22;10712;52.944;9.098;2023-08-17T03:14:21;16.90;89.90
21108;DHT22;10712;52.944;9.098;2023-08-17T03:16:47;16.90;90.30
21108;DHT22;10712;52.944;9.098;2023-08-17T03:19:14;16.90;90.50
21108;DHT22;10712;52.944;9.098;2023-08-17T03:21:43;16.80;90.70
21108;DHT22;10712;52.944;9.098;2023-08-17T03:24:09;16.80;91.10
21108;DHT22;10712;52.944;9.098;2023-08-17T03:26:35;16.80;91.30
21108;DHT22;10712;52.944;9.098;2023-08-17T03:29:01;16.70;91.70
21108;DHT22;10712;52.944;9.098;2023-08-17T03:31:27;16.70;91.70
21108;DHT22;10712;52.944;9.098;2023-08-17T03:33:54;16.70;92.00
21108;DHT22;10712;52.944;9.098;2023-08-17T03:36:21;16.70;92.20
21108;DHT22;10712;52.944;9.098;2023-08-17T03:38:47;16.70;92.40
21108;DHT22;10712;52.944;9.098;2023-08-17T03:41:13;16.70;92.50
21108;DHT22;10712;52.944;9.098;2023-08-17T03:43:39;16.60;92.70
21108;DHT22;10712;52.944;9.098;2023-08-17T03:46:05;16.60;92.70
21108;DHT22;10712;52.944;9.098;2023-08-17T03:48:31;16.60;92.80
21108;DHT22;10712;52.944;9.098;2023-08-17T03:50:56;16.60;93.00
21108;DHT22;10712;52.944;9.098;2023-08-17T03:53:22;16.60;93.10
21108;DHT22;10712;52.944;9.098;2023-08-17T03:55:49;16.60;93.30
21108;DHT22;10712;52.944;9.098;2023-08-17T03:58:17;16.60;93.30
21108;DHT22;10712;52.944;9.098;2023-08-17T04:00:52;16.60;93.40
21108;DHT22;10712;52.944;9.098;2023-08-17T04:03:24;16.60;93.50
21108;DHT22;10712;52.944;9.098;2023-08-17T04:05:50;16.60;93.60
21108;DHT22;10712;52.944;9.098;2023-08-17T04:08:16;16.50;93.60
21108;DHT22;10712;52.944;9.098;2023-08-17T04:10:42;16.50;93.70
21108;DHT22;10712;52.944;9.098;2023-08-17T04:13:07;16.50;93.70
21108;DHT22;10712;52.944;9.098;2023-08-17T04:15:33;16.50;93.60
21108;DHT22;10712;52.944;9.098;2023-08-17T04:17:59;16.50;93.60
21108;DHT22;10712;52.944;9.098;2023-08-17T04:20:25;16.50;93.50
21108;DHT22;10712;52.944;9.098;2023-08-17T04:22:51;16.50;93.50
21108;DHT22;10712;52.944;9.098;2023-08-17T04:25:17;16.50;93.40
21108;DHT22;10712;52.944;9.098;2023-08-17T04:27:43;16.50;93.40
21108;DHT22;10712;52.944;9.098;2023-08-17T04:30:10;16.50;93.30
21108;DHT22;10712;52.944;9.098;2023-08-17T04:32:47;16.50;93.30
21108;DHT22;10712;52.944;9.098;2023-08-17T04:35:19;16.50;93.40
21108;DHT22;10712;52.944;9.098;2023-08-17T04:37:46;16.50;93.40
21108;DHT22;10712;52.944;9.098;2023-08-17T04:40:13;16.50;93.30
21108;DHT22;10712;52.944;9.098;2023-08-17T04:42:39;16.50;93.50
21108;DHT22;10712;52.944;9.098;2023-08-17T04:45:06;16.50;93.60
21108;DHT22;10712;52.944;9.098;2023-08-17T04:47:37;16.50;93.60
21108;DHT22;10712;52.944;9.098;2023-08-17T04:50:03;16.50;93.70
21108;DHT22;10712;52.944;9.098;2023-08-17T04:52:29;16.50;93.60
21108;DHT22;10712;52.944;9.098;2023-08-17T04:54:55;16.50;93.70
21108;DHT22;10712;52.944;9.098;2023-08-17T04:57:20;16.40;93.90
21108;DHT22;10712;52.944;9.098;2023-08-17T04:59:46;16.40;93.80
21108;DHT22;10712;52.944;9.098;2023-08-17T05:02:13;16.40;93.90
21108;DHT22;10712;52.944;9.098;2023-08-17T05:04:39;16.40;93.90
21108;DHT22;10712;52.944;9.098;2023-08-17T05:07:05;16.40;94.00
21108;DHT22;10712;52.944;9.098;2023-08-17T05:09:32;16.40;93.90
21108;DHT22;10712;52.944;9.098;2023-08-17T05:11:59;16.40;93.90
21108;DHT22;10712;52.944;9.098;2023-08-17T05:14:25;16.40;93.80
21108;DHT22;10712;52.944;9.098;2023-08-17T05:16:50;16.30;93.80
21108;DHT22;10712;52.944;9.098;2023-08-17T05:19:16;16.30;93.90
21108;DHT22;10712;52.944;9.098;2023-08-17T05:21:42;16.30;94.00
21108;DHT22;10712;52.944;9.098;2023-08-17T05:24:08;16.20;94.10
21108;DHT22;10712;52.944;9.098;2023-08-17T05:26:34;16.20;94.10
21108;DHT22;10712;52.944;9.098;2023-08-17T05:29:00;16.20;94.10
21108;DHT22;10712;52.944;9.098;2023-08-17T05:31:26;16.20;94.30
21108;DHT22;10712;52.944;9.098;2023-08-17T05:33:53;16.20;94.30
21108;DHT22;10712;52.944;9.098;2023-08-17T05:36:21;16.20;94.30
21108;DHT22;10712;52.944;9.098;2023-08-17T05:38:47;16.10;94.30
21108;DHT22;10712;52.944;9.098;2023-08-17T05:41:13;16.20;94.30
21108;DHT22;10712;52.944;9.098;2023-08-17T05:43:39;16.10;94.30
21108;DHT22;10712;52.944;9.098;2023-08-17T05:46:04;16.20;94.30
21108;DHT22;10712;52.944;9.098;2023-08-17T05:48:32;16.20;94.30
21108;DHT22;10712;52.944;9.098;2023-08-17T05:50:58;16.20;94.30
21108;DHT22;10712;52.944;9.098;2023-08-17T05:53:23;16.20;94.30
21108;DHT22;10712;52.944;9.098;2023-08-17T05:55:49;16.20;94.30
21108;DHT22;10712;52.944;9.098;2023-08-17T05:58:15;16.20;94.30
21108;DHT22;10712;52.944;9.098;2023-08-17T06:00:41;16.20;94.30
21108;DHT22;10712;52.944;9.098;2023-08-17T06:03:07;16.20;94.30
21108;DHT22;10712;52.944;9.098;2023-08-17T06:05:33;16.20;94.30
21108;DHT22;10712;52.944;9.098;2023-08-17T06:07:58;16.20;94.30
21108;DHT22;10712;52.944;9.098;2023-08-17T06:10:24;16.20;94.30
21108;DHT22;10712;52.944;9.098;2023-08-17T06:12:52;16.20;94.30
21108;DHT22;10712;52.944;9.098;2023-08-17T06:15:19;16.20;94.30
21108;DHT22;10712;52.944;9.098;2023-08-17T06:17:45;16.20;94.30
21108;DHT22;10712;52.944;9.098;2023-08-17T06:20:12;16.20;94.30
21108;DHT22;10712;52.944;9.098;2023-08-17T06:22:38;16.20;94.30
21108;DHT22;10712;52.944;9.098;2023-08-17T06:25:04;16.20;94.30
21108;DHT22;10712;52.944;9.098;2023-08-17T06:27:31;16.20;94.30
21108;DHT22;10712;52.944;9.098;2023-08-17T06:29:57;16.20;94.30
21108;DHT22;10712;52.944;9.098;2023-08-17T06:32:23;16.20;94.30
21108;DHT22;10712;52.944;9.098;2023-08-17T06:34:49;16.20;94.30
21108;DHT22;10712;52.944;9.098;2023-08-17T06:37:15;16.30;94.30
21108;DHT22;10712;52.944;9.098;2023-08-17T06:39:40;16.30;94.30
21108;DHT22;10712;52.944;9.098;2023-08-17T06:42:06;16.30;94.30
21108;DHT22;10712;52.944;9.098;2023-08-17T06:44:32;16.30;94.30
21108;DHT22;10712;52.944;9.098;2023-08-17T06:46:58;16.30;94.30
21108;DHT22;10712;52.944;9.098;2023-08-17T06:49:24;16.30;94.30
21108;DHT22;10712;52.944;9.098;2023-08-17T06:51:50;16.30;94.30
21108;DHT22;10712;52.944;9.098;2023-08-17T06:54:16;16.30;94.30
21108;DHT22;10712;52.944;9.098;2023-08-17T06:56:42;16.30;94.30
21108;DHT22;10712;52.944;9.098;2023-08-17T06:59:08;16.40;94.30
21108;DHT22;10712;52.944;9.098;2023-08-17T07:01:33;16.40;94.30
21108;DHT22;10712;52.944;9.098;2023-08-17T07:03:59;16.40;94.30
21108;DHT22;10712;52.944;9.098;2023-08-17T07:06:25;16.40;94.30
21108;DHT22;10712;52.944;9.098;2023-08-17T07:08:51;16.40;94.30
21108;DHT22;10712;52.944;9.098;2023-08-17T07:11:18;16.40;94.30
21108;DHT22;10712;52.944;9.098;2023-08-17T07:13:44;16.40;94.30
21108;DHT22;10712;52.944;9.098;2023-08-17T07:16:10;16.40;94.30
21108;DHT22;10712;52.944;9.098;2023-08-17T07:18:36;16.40;94.30
21108;DHT22;10712;52.944;9.098;2023-08-17T07:21:01;16.50;94.30
21108;DHT22;10712;52.944;9.098;2023-08-17T07:23:27;16.50;94.30
21108;DHT22;10712;52.944;9.098;2023-08-17T07:25:53;16.50;94.30
21108;DHT22;10712;52.944;9.098;2023-08-17T07:28:19;16.50;94.30
21108;DHT22;10712;52.944;9.098;2023-08-17T07:30:45;16.50;94.30
21108;DHT22;10712;52.944;9.098;2023-08-17T07:33:10;16.50;94.30
21108;DHT22;10712;52.944;9.098;2023-08-17T07:35:36;16.50;94.30
21108;DHT22;10712;52.944;9.098;2023-08-17T07:38:02;16.60;94.30
21108;DHT22;10712;52.944;9.098;2023-08-17T07:40:28;16.60;94.30
21108;DHT22;10712;52.944;9.098;2023-08-17T07:42:54;16.60;94.30
21108;DHT22;10712;52.944;9.098;2023-08-17T07:45:20;16.60;94.30
21108;DHT22;10712;52.944;9.098;2023-08-17T07:47:45;16.60;94.30
21108;DHT22;10712;52.944;9.098;2023-08-17T07:50:11;16.60;94.30
21108;DHT22;10712;52.944;9.098;2023-08-17T07:52:37;16.60;94.30
21108;DHT22;10712;52.944;9.098;2023-08-17T07:55:03;16.60;94.30
21108;DHT22;10712;52.944;9.098;2023-08-17T07:57:29;16.60;94.30
21108;DHT22;10712;52.944;9.098;2023-08-17T07:59:55;16.60;94.30
21108;DHT22;10712;52.944;9.098;2023-08-17T08:02:20;16.60;94.30
21108;DHT22;10712;52.944;9.098;2023-08-17T08:04:46;16.60;94.30
21108;DHT22;10712;52.944;9.098;2023-08-17T08:07:12;16.60;94.30
21108;DHT22;10712;52.944;9.098;2023-08-17T08:09:38;16.60;94.30
21108;DHT22;10712;52.944;9.098;2023-08-17T08:12:04;16.60;94.30
21108;DHT22;10712;52.944;9.098;2023-08-17T08:14:31;16.60;94.30
21108;DHT22;10712;52.944;9.098;2023-08-17T08:16:56;16.60;94.30
21108;DHT22;10712;52.944;9.098;2023-08-17T08:19:22;16.60;94.30
21108;DHT22;10712;52.944;9.098;2023-08-17T08:21:48;16.60;94.30
21108;DHT22;10712;52.944;9.098;2023-08-17T08:24:14;16.70;94.30
21108;DHT22;10712;52.944;9.098;2023-08-17T08:26:40;16.60;94.30
21108;DHT22;10712;52.944;9.098;2023-08-17T08:29:05;16.60;94.30
21108;DHT22;10712;52.944;9.098;2023-08-17T08:31:31;16.60;94.30
21108;DHT22;10712;52.944;9.098;2023-08-17T08:33:57;16.60;94.30
21108;DHT22;10712;52.944;9.098;2023-08-17T08:36:25;16.60;94.30
21108;DHT22;10712;52.944;9.098;2023-08-17T08:38:50;16.60;94.30
21108;DHT22;10712;52.944;9.098;2023-08-17T08:41:17;16.60;94.30
21108;DHT22;10712;52.944;9.098;2023-08-17T08:43:43;16.60;94.30
21108;DHT22;10712;52.944;9.098;2023-08-17T08:46:09;16.60;94.30
21108;DHT22;10712;52.944;9.098;2023-08-17T08:48:39;16.60;94.30
21108;DHT22;10712;52.944;9.098;2023-08-17T08:51:08;16.60;94.30
21108;DHT22;10712;52.944;9.098;2023-08-17T08:53:39;16.60;94.30
21108;DHT22;10712;52.944;9.098;2023-08-17T08:56:11;16.60;94.30
21108;DHT22;10712;52.944;9.098;2023-08-17T08:58:42;16.60;94.30
21108;DHT22;10712;52.944;9.098;2023-08-17T09:01:10;16.60;94.30
21108;DHT22;10712;52.944;9.098;2023-08-17T09:03:38;16.60;94.30
21108;DHT22;10712;52.944;9.098;2023-08-17T09:06:04;16.60;94.30
21108;DHT22;10712;52.944;9.098;2023-08-17T09:08:30;16.60;94.30
21108;DHT22;10712;52.944;9.098;2023-08-17T09:10:57;16.60;94.30
21108;DHT22;10712;52.944;9.098;2023-08-17T09:13:23;16.60;94.30
21108;DHT22;10712;52.944;9.098;2023-08-17T09:15:48;16.60;94.30
21108;DHT22;10712;52.944;9.098;2023-08-17T09:18:16;16.60;94.30
21108;DHT22;10712;52.944;9.098;2023-08-17T09:20:46;16.60;94.30
21108;DHT22;10712;52.944;9.098;2023-08-17T09:23:16;16.60;94.30
21108;DHT22;10712;52.944;9.098;2023-08-17T09:25:45;16.60;94.30
21108;DHT22;10712;52.944;9.098;2023-08-17T09:28:14;16.60;94.30
21108;DHT22;10712;52.944;9.098;2023-08-17T09:30:50;16.70;94.30
21108;DHT22;10712;52.944;9.098;2023-08-17T09:33:20;16.70;94.30
21108;DHT22;10712;52.944;9.098;2023-08-17T09:35:49;16.70;94.30
21108;DHT22;10712;52.944;9.098;2023-08-17T09:38:16;16.70;94.30
21108;DHT22;10712;52.944;9.098;2023-08-17T09:40:43;16.70;94.30
21108;DHT22;10712;52.944;9.098;2023-08-17T09:43:09;16.70;94.30
21108;DHT22;10712;52.944;9.098;2023-08-17T09:45:37;16.70;94.30
21108;DHT22;10712;52.944;9.098;2023-08-17T09:48:05;16.70;94.30
21108;DHT22;10712;52.944;9.098;2023-08-17T09:50:31;16.70;94.30
21108;DHT22;10712;52.944;9.098;2023-08-17T09:52:57;16.80;94.30
21108;DHT22;10712;52.944;9.098;2023-08-17T09:55:23;16.70;94.30
21108;DHT22;10712;52.944;9.098;2023-08-17T09:57:50;16.70;94.30
21108;DHT22;10712;52.944;9.098;2023-08-17T10:00:19;16.70;94.30
21108;DHT22;10712;52.944;9.098;2023-08-17T10:02:45;16.70;94.30
21108;DHT22;10712;52.944;9.098;2023-08-17T10:05:18;16.60;94.30
21108;DHT22;10712;52.944;9.098;2023-08-17T10:07:54;16.60;94.30
21108;DHT22;10712;52.944;9.098;2023-08-17T10:10:27;16.60;94.30
21108;DHT22;10712;52.944;9.098;2023-08-17T10:13:07;16.60;94.30
21108;DHT22;10712;52.944;9.098;2023-08-17T10:15:38;16.60;94.00
21108;DHT22;10712;52.944;9.098;2023-08-17T10:18:33;16.60;93.50
21108;DHT22;10712;52.944;9.098;2023-08-17T10:21:10;16.60;93.40
21108;DHT22;10712;52.944;9.098;2023-08-17T10:23:44;16.60;93.20
21108;DHT22;10712;52.944;9.098;2023-08-17T10:26:11;16.50;93.20
21108;DHT22;10712;52.944;9.098;2023-08-17T10:28:38;16.50;93.20
21108;DHT22;10712;52.944;9.098;2023-08-17T10:31:05;16.50;93.20
21108;DHT22;10712;52.944;9.098;2023-08-17T10:33:32;16.50;93.40
21108;DHT22;10712;52.944;9.098;2023-08-17T10:36:00;16.50;93.50
21108;DHT22;10712;52.944;9.098;2023-08-17T10:38:27;16.50;93.50
21108;DHT22;10712;52.944;9.098;2023-08-17T10:41:28;16.50;93.40
21108;DHT22;10712;52.944;9.098;2023-08-17T10:43:58;16.40;93.10
21108;DHT22;10712;52.944;9.098;2023-08-17T10:46:37;16.40;93.10
21108;DHT22;10712;52.944;9.098;2023-08-17T10:49:25;16.40;93.20
21108;DHT22;10712;52.944;9.098;2023-08-17T10:52:08;16.40;93.10
21108;DHT22;10712;52.944;9.098;2023-08-17T10:54:38;16.40;93.20
21108;DHT22;10712;52.944;9.098;2023-08-17T10:57:28;16.40;92.80
21108;DHT22;10712;52.944;9.098;2023-08-17T11:02:58;16.50;93.20
21108;DHT22;10712;52.944;9.098;2023-08-17T11:05:45;16.50;93.10
21108;DHT22;10712;52.944;9.098;2023-08-17T11:08:54;16.50;92.70
21108;DHT22;10712;52.944;9.098;2023-08-17T11:11:22;16.50;93.10
21108;DHT22;10712;52.944;9.098;2023-08-17T11:13:48;16.50;93.20
21108;DHT22;10712;52.944;9.098;2023-08-17T11:16:16;16.50;93.40
21108;DHT22;10712;52.944;9.098;2023-08-17T11:18:46;16.50;93.50
21108;DHT22;10712;52.944;9.098;2023-08-17T11:21:12;16.50;93.60
21108;DHT22;10712;52.944;9.098;2023-08-17T11:23:40;16.50;93.40
21108;DHT22;10712;52.944;9.098;2023-08-17T11:26:07;16.50;93.20
21108;DHT22;10712;52.944;9.098;2023-08-17T11:28:34;16.50;93.40
21108;DHT22;10712;52.944;9.098;2023-08-17T11:31:08;16.50;93.50
21108;DHT22;10712;52.944;9.098;2023-08-17T11:33:36;16.50;93.10
21108;DHT22;10712;52.944;9.098;2023-08-17T11:36:04;16.50;93.30
21108;DHT22;10712;52.944;9.098;2023-08-17T11:38:36;16.40;93.40
21108;DHT22;10712;52.944;9.098;2023-08-17T11:41:06;16.50;93.70
21108;DHT22;10712;52.944;9.098;2023-08-17T11:43:36;16.50;93.80
21108;DHT22;10712;52.944;9.098;2023-08-17T11:46:03;16.60;93.80
21108;DHT22;10712;52.944;9.098;2023-08-17T11:48:30;16.60;93.90
21108;DHT22;10712;52.944;9.098;2023-08-17T11:50:56;16.70;93.80
21108;DHT22;10712;52.944;9.098;2023-08-17T11:53:23;16.70;93.80
21108;DHT22;10712;52.944;9.098;2023-08-17T11:55:50;16.80;93.60
21108;DHT22;10712;52.944;9.098;2023-08-17T11:58:16;16.80;93.60
21108;DHT22;10712;52.944;9.098;2023-08-17T12:00:43;16.80;93.20
21108;DHT22;10712;52.944;9.098;2023-08-17T12:03:13;16.80;93.30
21108;DHT22;10712;52.944;9.098;2023-08-17T12:05:41;16.90;93.20
21108;DHT22;10712;52.944;9.098;2023-08-17T12:08:09;16.80;93.30
21108;DHT22;10712;52.944;9.098;2023-08-17T12:10:37;16.90;93.20
21108;DHT22;10712;52.944;9.098;2023-08-17T12:13:04;16.80;93.20
21108;DHT22;10712;52.944;9.098;2023-08-17T12:15:33;16.80;93.30
21108;DHT22;10712;52.944;9.098;2023-08-17T12:18:02;16.80;93.40
21108;DHT22;10712;52.944;9.098;2023-08-17T12:20:32;16.80;93.30
21108;DHT22;10712;52.944;9.098;2023-08-17T12:22:58;16.80;93.00
21108;DHT22;10712;52.944;9.098;2023-08-17T12:25:25;16.80;93.10
21108;DHT22;10712;52.944;9.098;2023-08-17T12:27:51;16.80;93.20
21108;DHT22;10712;52.944;9.098;2023-08-17T12:30:31;16.80;93.20
21108;DHT22;10712;52.944;9.098;2023-08-17T12:32:58;16.80;92.90
21108;DHT22;10712;52.944;9.098;2023-08-17T12:35:25;16.80;93.00
21108;DHT22;10712;52.944;9.098;2023-08-17T12:37:52;16.80;92.80
21108;DHT22;10712;52.944;9.098;2023-08-17T12:40:19;16.90;92.80
21108;DHT22;10712;52.944;9.098;2023-08-17T12:42:46;16.90;92.70
21108;DHT22;10712;52.944;9.098;2023-08-17T12:45:13;16.90;92.50
21108;DHT22;10712;52.944;9.098;2023-08-17T12:47:39;16.90;92.70
21108;DHT22;10712;52.944;9.098;2023-08-17T12:50:06;16.90;92.60
21108;DHT22;10712;52.944;9.098;2023-08-17T12:52:32;16.90;92.60
21108;DHT22;10712;52.944;9.098;2023-08-17T12:54:58;16.90;92.80
21108;DHT22;10712;52.944;9.098;2023-08-17T12:57:24;16.90;92.80
21108;DHT22;10712;52.944;9.098;2023-08-17T12:59:50;16.90;92.80
21108;DHT22;10712;52.944;9.098;2023-08-17T13:02:15;16.90;92.60
21108;DHT22;10712;52.944;9.098;2023-08-17T13:04:41;16.80;92.70
21108;DHT22;10712;52.944;9.098;2023-08-17T13:07:07;16.80;92.70
21108;DHT22;10712;52.944;9.098;2023-08-17T13:09:33;16.80;92.70
21108;DHT22;10712;52.944;9.098;2023-08-17T13:11:59;16.80;92.60
21108;DHT22;10712;52.944;9.098;2023-08-17T13:14:25;16.80;92.50
21108;DHT22;10712;52.944;9.098;2023-08-17T13:16:51;16.70;92.00
21108;DHT22;10712;52.944;9.098;2023-08-17T13:19:18;16.70;92.20
21108;DHT22;10712;52.944;9.098;2023-08-17T13:21:44;16.70;91.90
21108;DHT22;10712;52.944;9.098;2023-08-17T13:24:11;16.70;91.80
21108;DHT22;10712;52.944;9.098;2023-08-17T13:26:37;16.70;91.80
21108;DHT22;10712;52.944;9.098;2023-08-17T13:29:03;16.70;91.50
21108;DHT22;10712;52.944;9.098;2023-08-17T13:31:29;16.70;91.60
21108;DHT22;10712;52.944;9.098;2023-08-17T13:34:10;16.70;91.40
21108;DHT22;10712;52.944;9.098;2023-08-17T13:36:37;16.70;91.40
21108;DHT22;10712;52.944;9.098;2023-08-17T13:39:03;16.70;91.20
21108;DHT22;10712;52.944;9.098;2023-08-17T13:41:29;16.60;90.90
21108;DHT22;10712;52.944;9.098;2023-08-17T13:43:55;16.60;91.10
21108;DHT22;10712;52.944;9.098;2023-08-17T13:46:23;16.60;91.10
21108;DHT22;10712;52.944;9.098;2023-08-17T13:48:49;16.50;91.00
21108;DHT22;10712;52.944;9.098;2023-08-17T13:51:14;16.50;90.60
21108;DHT22;10712;52.944;9.098;2023-08-17T13:53:40;16.50;91.00
21108;DHT22;10712;52.944;9.098;2023-08-17T13:56:06;16.50;91.20
21108;DHT22;10712;52.944;9.098;2023-08-17T13:58:32;16.50;91.20
21108;DHT22;10712;52.944;9.098;2023-08-17T14:00:57;16.50;91.50
21108;DHT22;10712;52.944;9.098;2023-08-17T14:03:23;16.50;91.70
21108;DHT22;10712;52.944;9.098;2023-08-17T14:05:49;16.50;91.80
21108;DHT22;10712;52.944;9.098;2023-08-17T14:08:15;16.50;92.10
21108;DHT22;10712;52.944;9.098;2023-08-17T14:10:41;16.60;92.10
21108;DHT22;10712;52.944;9.098;2023-08-17T14:13:06;16.50;91.90
21108;DHT22;10712;52.944;9.098;2023-08-17T14:15:32;16.50;92.00
21108;DHT22;10712;52.944;9.098;2023-08-17T14:17:58;16.50;92.00
21108;DHT22;10712;52.944;9.098;2023-08-17T14:20:24;16.50;92.20
21108;DHT22;10712;52.944;9.098;2023-08-17T14:22:50;16.60;92.30
21108;DHT22;10712;52.944;9.098;2023-08-17T14:25:16;16.50;91.80
21108;DHT22;10712;52.944;9.098;2023-08-17T14:27:42;16.50;92.00
21108;DHT22;10712;52.944;9.098;2023-08-17T14:30:08;16.40;91.80
21108;DHT22;10712;52.944;9.098;2023-08-17T14:32:33;16.40;91.90
21108;DHT22;10712;52.944;9.098;2023-08-17T14:34:59;16.40;91.90
21108;DHT22;10712;52.944;9.098;2023-08-17T14:37:25;16.40;91.80
21108;DHT22;10712;52.944;9.098;2023-08-17T14:39:51;16.30;92.00
21108;DHT22;10712;52.944;9.098;2023-08-17T14:42:17;16.30;92.10
21108;DHT22;10712;52.944;9.098;2023-08-17T14:44:43;16.30;92.30
21108;DHT22;10712;52.944;9.098;2023-08-17T14:47:08;16.30;92.30
21108;DHT22;10712;52.944;9.098;2023-08-17T14:49:34;16.30;92.50
21108;DHT22;10712;52.944;9.098;2023-08-17T14:52:00;16.30;92.50
21108;DHT22;10712;52.944;9.098;2023-08-17T14:54:26;16.30;92.70
21108;DHT22;10712;52.944;9.098;2023-08-17T14:56:52;16.30;92.80
21108;DHT22;10712;52.944;9.098;2023-08-17T14:59:18;16.30;92.90
21108;DHT22;10712;52.944;9.098;2023-08-17T15:01:44;16.30;93.00
21108;DHT22;10712;52.944;9.098;2023-08-17T15:04:10;16.30;92.80
21108;DHT22;10712;52.944;9.098;2023-08-17T15:06:35;16.30;92.80
21108;DHT22;10712;52.944;9.098;2023-08-17T15:09:02;16.30;93.10
21108;DHT22;10712;52.944;9.098;2023-08-17T15:11:31;16.30;93.10
21108;DHT22;10712;52.944;9.098;2023-08-17T15:13:56;16.30;93.00
21108;DHT22;10712;52.944;9.098;2023-08-17T15:16:22;16.30;93.20
21108;DHT22;10712;52.944;9.098;2023-08-17T15:18:53;16.30;93.20
21108;DHT22;10712;52.944;9.098;2023-08-17T15:21:19;16.30;93.10
21108;DHT22;10712;52.944;9.098;2023-08-17T15:23:45;16.30;93.30
21108;DHT22;10712;52.944;9.098;2023-08-17T15:26:11;16.30;93.20
21108;DHT22;10712;52.944;9.098;2023-08-17T15:28:38;16.40;93.30
21108;DHT22;10712;52.944;9.098;2023-08-17T15:31:05;16.40;93.50
21108;DHT22;10712;52.944;9.098;2023-08-17T15:33:31;16.40;93.50
21108;DHT22;10712;52.944;9.098;2023-08-17T15:35:57;16.40;93.10
21108;DHT22;10712;52.944;9.098;2023-08-17T15:38:26;16.40;93.20